createdAt,value
2022-10-23T00:01:28.254Z,88.38
2022-10-23T00:04:01.082Z,88.52
2022-10-23T00:06:28.815Z,88.57
2022-10-23T00:08:55.603Z,88.70
2022-10-23T00:11:24.486Z,88.67
2022-10-23T00:13:53.207Z,88.62
2022-10-23T00:16:19.691Z,88.69
2022-10-23T00:18:46.217Z,89.05
2022-10-23T00:21:15.211Z,88.90
2022-10-23T00:23:41.758Z,89.14
2022-10-23T00:26:10.905Z,89.03
2022-10-23T00:28:38.045Z,88.91
2022-10-23T00:31:05.719Z,89.34
2022-10-23T00:33:33.003Z,89.20
2022-10-23T00:35:59.341Z,89.10
2022-10-23T00:38:25.729Z,89.02
2022-10-23T00:40:52.208Z,89.16
2022-10-23T00:43:25.385Z,89.01
2022-10-23T00:45:52.541Z,89.00
2022-10-23T00:48:19.661Z,89.18
2022-10-23T00:50:47.641Z,89.22
2022-10-23T00:53:15.361Z,89.19
2022-10-23T00:55:46.805Z,89.34
2022-10-23T00:58:17.445Z,89.40
2022-10-23T01:00:48.057Z,89.49
2022-10-23T01:03:16.443Z,89.47
2022-10-23T01:06:00.406Z,89.42
2022-10-23T01:08:46.813Z,89.71
2022-10-23T01:11:15.827Z,89.62
2022-10-23T01:16:59.666Z,89.35
2022-10-23T01:19:59.634Z,89.51
2022-10-23T01:22:38.220Z,89.58
2022-10-23T01:25:25.806Z,89.58
2022-10-23T01:27:57.932Z,89.60
2022-10-23T01:30:24.347Z,89.83
2022-10-23T01:32:56.258Z,89.84
2022-10-23T01:35:32.555Z,89.87
2022-10-23T01:38:19.112Z,89.82
2022-10-23T01:41:17.278Z,89.89
2022-10-23T01:44:00.083Z,89.98
2022-10-23T01:46:27.966Z,90.10
2022-10-23T01:48:56.758Z,90.02
2022-10-23T01:51:27.018Z,90.11
2022-10-23T01:53:57.171Z,90.23
2022-10-23T01:56:28.353Z,90.18
2022-10-23T01:58:57.638Z,90.15
2022-10-23T02:01:28.058Z,90.22
2022-10-23T02:06:28.951Z,90.20
2022-10-23T02:08:56.263Z,90.20
2022-10-23T02:11:23.069Z,90.17
2022-10-23T02:14:45.815Z,90.24
2022-10-23T02:17:16.896Z,90.22
2022-10-23T02:19:50.302Z,90.11
2022-10-23T02:22:25.222Z,90.24
2022-10-23T02:24:57.838Z,90.33
2022-10-23T02:27:31.738Z,90.38
2022-10-23T02:30:05.260Z,90.46
2022-10-23T02:32:33.249Z,90.48
2022-10-23T02:34:59.608Z,90.55
2022-10-23T02:37:26.136Z,90.51
2022-10-23T02:39:54.229Z,90.50
2022-10-23T02:42:30.760Z,90.62
2022-10-23T02:45:06.028Z,90.58
2022-10-23T02:48:26.434Z,90.59
2022-10-23T02:51:03.109Z,90.67
2022-10-23T02:53:40.534Z,90.74
2022-10-23T02:56:19.182Z,90.76
2022-10-23T02:58:59.535Z,90.79
2022-10-23T03:01:39.049Z,90.81
2022-10-23T03:04:07.666Z,90.83
2022-10-23T03:06:34.238Z,90.65
2022-10-23T03:09:08.462Z,90.99
2022-10-23T03:11:35.180Z,90.83
2022-10-23T03:14:01.955Z,90.81
2022-10-23T03:16:28.437Z,90.97
2022-10-23T03:18:55.393Z,90.87
2022-10-23T03:21:21.826Z,90.94
2022-10-23T03:23:48.253Z,90.83
2022-10-23T03:26:14.586Z,90.91
2022-10-23T03:28:40.922Z,90.98
2022-10-23T03:31:07.266Z,90.89
2022-10-23T03:33:33.673Z,91.19
2022-10-23T03:35:59.993Z,91.24
2022-10-23T03:38:26.364Z,90.99
2022-10-23T03:40:52.679Z,90.94
2022-10-23T03:43:18.994Z,91.18
2022-10-23T03:45:45.315Z,91.26
2022-10-23T03:48:11.701Z,91.29
2022-10-23T03:50:38.191Z,91.31
2022-10-23T03:53:04.554Z,91.24
2022-10-23T03:55:31.226Z,91.07
2022-10-23T03:57:57.564Z,91.59
2022-10-23T04:00:23.947Z,91.56
2022-10-23T04:02:50.314Z,91.56
2022-10-23T04:05:16.789Z,91.69
2022-10-23T04:07:43.120Z,91.70
2022-10-23T04:10:09.803Z,91.69
2022-10-23T04:12:36.346Z,91.84
2022-10-23T04:15:02.737Z,91.98
2022-10-23T04:17:29.142Z,91.87
2022-10-23T04:19:55.758Z,91.75
2022-10-23T04:22:24.744Z,91.74
2022-10-23T04:24:53.891Z,91.84
2022-10-23T04:27:22.622Z,92.00
2022-10-23T04:29:49.218Z,91.83
2022-10-23T04:32:18.147Z,91.88
2022-10-23T04:34:44.476Z,91.79
2022-10-23T04:37:10.825Z,91.89
2022-10-23T04:39:37.858Z,91.90
2022-10-23T04:42:04.340Z,92.13
2022-10-23T04:44:30.686Z,92.13
2022-10-23T04:46:57.078Z,92.05
2022-10-23T04:49:23.415Z,92.04
2022-10-23T04:51:49.776Z,91.92
2022-10-23T04:54:16.154Z,92.19
2022-10-23T04:56:42.594Z,92.19
2022-10-23T04:59:09.370Z,92.22
2022-10-23T05:01:36.512Z,92.23
2022-10-23T05:04:03.301Z,92.32
2022-10-23T05:06:29.673Z,92.18
2022-10-23T05:08:56.179Z,92.24
2022-10-23T05:11:22.587Z,92.30
2022-10-23T05:13:49.007Z,92.26
2022-10-23T05:16:38.035Z,92.35
2022-10-23T05:19:07.164Z,92.40
2022-10-23T05:21:35.953Z,92.51
2022-10-23T05:24:02.483Z,92.31
2022-10-23T05:26:30.605Z,92.21
2022-10-23T05:28:56.962Z,92.37
2022-10-23T05:31:25.245Z,92.32
2022-10-23T05:33:54.199Z,92.19
2022-10-23T05:36:22.245Z,92.40
2022-10-23T05:38:48.756Z,92.47
2022-10-23T05:41:15.170Z,92.53
2022-10-23T05:43:41.533Z,92.75
2022-10-23T05:46:07.867Z,92.36
2022-10-23T05:48:35.447Z,92.54
2022-10-23T05:51:06.694Z,92.46
2022-10-23T05:53:35.182Z,92.55
2022-10-23T05:56:07.035Z,92.71
2022-10-23T05:58:34.041Z,92.63
2022-10-23T06:01:04.963Z,92.73
2022-10-23T06:03:31.342Z,92.92
2022-10-23T06:05:57.669Z,92.85
2022-10-23T06:08:24.353Z,93.00
2022-10-23T06:10:50.814Z,93.09
2022-10-23T06:13:17.272Z,93.13
2022-10-23T06:15:43.627Z,93.13
2022-10-23T06:18:10.054Z,93.15
2022-10-23T06:20:40.254Z,93.44
2022-10-23T06:23:07.332Z,93.35
2022-10-23T06:25:35.977Z,93.28
2022-10-23T06:28:02.293Z,93.42
2022-10-23T06:30:28.788Z,93.40
2022-10-23T06:32:55.437Z,93.64
2022-10-23T06:35:21.798Z,93.58
2022-10-23T06:37:48.154Z,93.60
2022-10-23T06:40:14.560Z,93.42
2022-10-23T06:42:41.330Z,93.67
2022-10-23T06:45:08.136Z,93.59
2022-10-23T06:47:34.449Z,93.82
2022-10-23T06:50:00.807Z,93.70
2022-10-23T06:52:47.634Z,93.71
2022-10-23T06:55:14.860Z,93.71
2022-10-23T06:57:43.125Z,93.68
2022-10-23T07:00:10.417Z,93.77
2022-10-23T07:02:36.973Z,93.94
2022-10-23T07:05:04.161Z,93.67
2022-10-23T07:07:31.125Z,93.82
2022-10-23T07:09:57.716Z,93.80
2022-10-23T07:12:24.357Z,93.82
2022-10-23T07:14:50.785Z,93.94
2022-10-23T07:17:19.865Z,93.99
2022-10-23T07:19:47.223Z,93.97
2022-10-23T07:22:15.883Z,94.02
2022-10-23T07:24:42.605Z,94.12
2022-10-23T07:27:09.606Z,93.94
2022-10-23T07:29:36.005Z,94.03
2022-10-23T07:32:02.433Z,93.94
2022-10-23T07:34:28.789Z,94.04
2022-10-23T07:36:56.752Z,93.94
2022-10-23T07:39:23.331Z,93.73
2022-10-23T07:41:49.998Z,93.81
2022-10-23T07:44:16.461Z,93.89
2022-10-23T07:46:42.821Z,93.91
2022-10-23T07:49:11.359Z,93.98
2022-10-23T07:51:37.815Z,93.96
2022-10-23T07:54:06.825Z,93.79
2022-10-23T07:56:33.283Z,93.98
2022-10-23T07:58:59.595Z,94.08
2022-10-23T08:01:31.406Z,93.96
2022-10-23T08:03:57.942Z,94.04
2022-10-23T08:06:24.373Z,94.06
2022-10-23T08:08:50.987Z,94.05
2022-10-23T08:11:24.749Z,94.24
2022-10-23T08:13:58.335Z,94.07
2022-10-23T08:16:25.197Z,94.13
2022-10-23T08:18:54.495Z,94.24
2022-10-23T08:21:20.931Z,94.02
2022-10-23T08:23:47.352Z,93.99
2022-10-23T08:26:16.879Z,93.77
2022-10-23T08:28:43.220Z,93.79
2022-10-23T08:31:13.070Z,93.68
2022-10-23T08:33:40.275Z,93.80
2022-10-23T08:36:23.596Z,93.95
2022-10-23T08:38:53.499Z,93.78
2022-10-23T08:41:28.063Z,93.78
2022-10-23T08:44:40.932Z,93.73
2022-10-23T08:47:19.571Z,93.68
2022-10-23T08:50:03.695Z,93.75
2022-10-23T08:52:34.495Z,93.75
2022-10-23T08:55:03.437Z,93.73
2022-10-23T08:57:43.721Z,93.78
2022-10-23T09:00:15.978Z,93.74
2022-10-23T09:02:46.633Z,93.60
2022-10-23T09:05:21.405Z,93.53
2022-10-23T09:07:56.204Z,93.69
2022-10-23T09:10:58.007Z,93.70
2022-10-23T09:13:30.489Z,93.46
2022-10-23T09:16:36.040Z,93.25
2022-10-23T09:19:08.767Z,93.45
2022-10-23T09:21:37.692Z,93.16
2022-10-23T09:24:04.301Z,93.09
2022-10-23T09:26:30.653Z,93.06
2022-10-23T09:29:07.649Z,92.86
2022-10-23T09:31:33.966Z,92.84
2022-10-23T09:34:01.781Z,92.85
2022-10-23T09:36:29.379Z,92.67
2022-10-23T09:39:00.540Z,92.58
2022-10-23T09:41:35.538Z,92.33
2022-10-23T09:44:08.632Z,92.72
2022-10-23T09:46:42.741Z,92.47
2022-10-23T09:49:30.074Z,92.43
2022-10-23T09:52:09.948Z,92.21
2022-10-23T09:54:46.193Z,92.28
2022-10-23T09:57:38.622Z,92.22
2022-10-23T10:00:07.833Z,92.07
2022-10-23T10:02:36.888Z,92.16
2022-10-23T10:05:24.485Z,92.02
2022-10-23T10:08:06.846Z,91.98
2022-10-23T10:10:42.163Z,92.09
2022-10-23T10:13:56.359Z,91.90
2022-10-23T10:16:35.719Z,91.68
2022-10-23T10:19:13.788Z,91.67
2022-10-23T10:21:54.986Z,91.59
2022-10-23T10:24:30.141Z,91.62
2022-10-23T10:27:18.842Z,91.43
2022-10-23T10:30:10.374Z,91.26
2022-10-23T10:32:45.529Z,91.10
2022-10-23T10:35:37.147Z,91.05
2022-10-23T10:38:24.608Z,90.92
2022-10-23T10:40:53.972Z,91.08
2022-10-23T10:43:26.224Z,90.95
2022-10-23T10:46:18.648Z,90.88
2022-10-23T10:49:07.374Z,90.91
2022-10-23T10:52:10.257Z,90.67
2022-10-23T10:55:01.975Z,90.66
2022-10-23T10:58:02.440Z,90.36
2022-10-23T11:00:31.380Z,90.19
2022-10-23T11:03:04.670Z,90.24
2022-10-23T11:05:38.213Z,90.23
2022-10-23T11:08:13.502Z,89.85
2022-10-23T11:10:45.895Z,89.87
2022-10-23T11:13:36.324Z,89.82
2022-10-23T11:16:13.352Z,89.77
2022-10-23T11:18:46.803Z,89.71
2022-10-23T11:21:26.604Z,89.61
2022-10-23T11:24:11.124Z,89.51
2022-10-23T11:27:18.798Z,89.26
2022-10-23T11:30:18.683Z,89.07
2022-10-23T11:33:06.416Z,88.58
2022-10-23T11:35:51.669Z,88.55
2022-10-23T11:38:31.878Z,88.38
2022-10-23T11:41:02.279Z,88.09
2022-10-23T11:43:57.424Z,87.39
2022-10-23T11:46:24.561Z,87.00
2022-10-23T11:48:52.085Z,86.86
2022-10-23T11:51:31.377Z,86.90
2022-10-23T11:54:16.054Z,86.54
2022-10-23T11:57:10.413Z,86.24
2022-10-23T11:59:48.958Z,85.63
2022-10-23T12:02:38.129Z,85.07
2022-10-23T12:05:08.616Z,84.79
2022-10-23T12:07:38.507Z,84.09
2022-10-23T12:10:07.996Z,83.84
2022-10-23T12:12:43.056Z,83.59
2022-10-23T12:15:14.463Z,83.35
2022-10-23T12:17:45.266Z,82.64
2022-10-23T12:20:22.940Z,82.25
2022-10-23T12:23:19.856Z,82.10
2022-10-23T12:26:07.940Z,82.07
2022-10-23T12:28:48.698Z,82.10
2022-10-23T12:31:33.320Z,82.28
2022-10-23T12:34:18.495Z,82.10
2022-10-23T12:37:14.646Z,82.04
2022-10-23T12:39:42.050Z,81.89
2022-10-23T12:42:29.358Z,81.94
2022-10-23T12:45:03.258Z,82.13
2022-10-23T12:47:30.319Z,82.22
2022-10-23T12:49:56.734Z,81.84
2022-10-23T12:52:25.186Z,82.07
2022-10-23T12:54:51.978Z,81.93
2022-10-23T12:57:25.462Z,81.78
2022-10-23T12:59:56.665Z,81.98
2022-10-23T13:02:29.203Z,82.02
2022-10-23T13:04:58.365Z,82.03
2022-10-23T13:07:28.289Z,81.94
2022-10-23T13:09:55.800Z,81.82
2022-10-23T13:12:32.728Z,81.62
2022-10-23T13:15:03.443Z,81.65
2022-10-23T13:17:45.486Z,81.58
2022-10-23T13:20:17.956Z,81.47
2022-10-23T13:22:46.761Z,81.12
2022-10-23T13:25:42.907Z,80.98
2022-10-23T13:28:24.548Z,80.42
2022-10-23T13:31:09.666Z,80.12
2022-10-23T13:33:39.349Z,79.79
2022-10-23T13:36:14.770Z,79.93
2022-10-23T13:38:46.644Z,79.85
2022-10-23T13:41:21.109Z,79.60
2022-10-23T13:43:48.333Z,79.55
2022-10-23T13:46:25.548Z,79.44
2022-10-23T13:48:52.294Z,79.14
2022-10-23T13:51:25.371Z,79.34
2022-10-23T13:53:52.218Z,79.26
2022-10-23T13:56:21.196Z,79.38
2022-10-23T13:58:48.060Z,79.10
2022-10-23T14:01:22.262Z,79.03
2022-10-23T14:03:50.451Z,79.36
2022-10-23T14:06:17.058Z,79.14
2022-10-23T14:08:43.770Z,79.08
2022-10-23T14:13:41.007Z,79.22
2022-10-23T14:16:09.431Z,79.15
2022-10-23T14:18:35.739Z,79.09
2022-10-23T14:21:02.965Z,79.24
2022-10-23T14:23:29.292Z,78.85
2022-10-23T14:26:11.907Z,78.97
2022-10-23T14:28:41.649Z,78.58
2022-10-23T14:31:15.076Z,78.16
2022-10-23T14:33:41.600Z,78.07
2022-10-23T14:36:08.537Z,78.16
2022-10-23T14:38:35.306Z,78.25
2022-10-23T14:41:02.132Z,78.22
2022-10-23T14:43:28.603Z,78.26
2022-10-23T14:45:54.998Z,78.04
2022-10-23T14:48:21.437Z,78.21
2022-10-23T14:50:49.152Z,78.43
2022-10-23T14:53:15.776Z,78.79
2022-10-23T14:55:42.136Z,78.70
2022-10-23T14:58:08.654Z,78.74
2022-10-23T15:00:35.016Z,78.90
2022-10-23T15:03:01.421Z,79.04
2022-10-23T15:05:27.781Z,78.96
2022-10-23T15:07:55.114Z,79.25
2022-10-23T15:10:21.451Z,79.35
2022-10-23T15:12:48.489Z,79.46
2022-10-23T15:15:14.891Z,79.52
2022-10-23T15:17:42.235Z,79.80
2022-10-23T15:20:09.066Z,79.82
2022-10-23T15:22:35.454Z,80.03
2022-10-23T15:25:01.825Z,80.16
2022-10-23T15:27:28.225Z,80.16
2022-10-23T15:29:54.543Z,80.35
2022-10-23T15:32:20.869Z,80.57
2022-10-23T15:34:49.550Z,80.51
2022-10-23T15:37:15.937Z,80.61
2022-10-23T15:39:42.415Z,80.81
2022-10-23T15:42:10.180Z,80.90
2022-10-23T15:44:36.677Z,80.94
2022-10-23T15:47:03.579Z,80.92
2022-10-23T15:49:30.009Z,81.01
2022-10-23T15:51:56.734Z,81.29
2022-10-23T15:54:23.465Z,81.36
2022-10-23T15:56:52.307Z,81.47
2022-10-23T15:59:22.628Z,81.61
2022-10-23T16:01:49.425Z,81.74
2022-10-23T16:04:16.775Z,81.88
2022-10-23T16:06:46.048Z,81.94
2022-10-23T16:09:12.615Z,82.00
2022-10-23T16:11:41.367Z,81.95
2022-10-23T16:14:09.489Z,82.01
2022-10-23T16:16:35.979Z,82.13
2022-10-23T16:19:04.652Z,82.19
2022-10-23T16:21:34.881Z,82.31
2022-10-23T16:24:02.907Z,82.20
2022-10-23T16:26:29.976Z,82.18
2022-10-23T16:29:01.419Z,82.44
2022-10-23T16:31:28.636Z,82.28
2022-10-23T16:36:29.386Z,82.28
2022-10-23T16:38:56.203Z,82.43
2022-10-23T16:41:22.573Z,82.46
2022-10-23T16:43:49.221Z,82.52
2022-10-23T16:46:19.222Z,82.54
2022-10-23T16:48:45.946Z,82.59
2022-10-23T16:51:15.295Z,82.46
2022-10-23T16:53:42.597Z,82.58
2022-10-23T16:56:15.072Z,82.58
2022-10-23T16:58:42.287Z,82.67
2022-10-23T17:01:19.870Z,82.56
2022-10-23T17:03:48.372Z,82.41
2022-10-23T17:06:18.572Z,82.48
2022-10-23T17:08:45.228Z,82.63
2022-10-23T17:11:14.459Z,82.50
2022-10-23T17:13:44.207Z,82.76
2022-10-23T17:16:13.519Z,82.83
2022-10-23T17:18:43.713Z,82.93
2022-10-23T17:21:12.077Z,82.97
2022-10-23T17:23:40.948Z,82.97
2022-10-23T17:26:12.854Z,82.89
2022-10-23T17:28:42.138Z,82.77
2022-10-23T17:31:23.088Z,82.83
2022-10-23T17:33:52.541Z,82.81
2022-10-23T17:36:20.949Z,82.89
2022-10-23T17:38:48.270Z,82.89
2022-10-23T17:41:16.866Z,83.04
2022-10-23T17:43:43.529Z,82.92
2022-10-23T17:46:11.671Z,83.21
2022-10-23T17:48:43.695Z,83.09
2022-10-23T17:51:12.612Z,83.26
2022-10-23T17:53:44.542Z,83.33
2022-10-23T17:56:18.993Z,83.37
2022-10-23T17:58:46.877Z,83.74
2022-10-23T18:01:15.949Z,83.47
2022-10-23T18:03:42.490Z,83.47
2022-10-23T18:06:17.341Z,83.59
2022-10-23T18:08:44.440Z,83.70
2022-10-23T18:11:20.153Z,83.68
2022-10-23T18:13:46.761Z,83.69
2022-10-23T18:16:14.269Z,83.83
2022-10-23T18:18:42.754Z,83.76
2022-10-23T18:21:09.884Z,83.76
2022-10-23T18:23:39.197Z,83.93
2022-10-23T18:26:05.956Z,83.74
2022-10-23T18:28:32.484Z,83.88
2022-10-23T18:30:58.885Z,83.94
2022-10-23T18:33:26.459Z,83.94
2022-10-23T18:35:52.824Z,83.78
2022-10-23T18:38:19.185Z,83.80
2022-10-23T18:40:53.573Z,83.90
2022-10-23T18:43:31.274Z,83.85
2022-10-23T18:46:05.695Z,83.95
2022-10-23T18:48:32.106Z,84.16
2022-10-23T18:50:58.515Z,84.39
2022-10-23T18:53:24.927Z,84.70
2022-10-23T18:55:51.490Z,85.16
2022-10-23T18:58:19.102Z,85.47
2022-10-23T19:00:46.079Z,85.66
2022-10-23T19:03:14.164Z,85.97
2022-10-23T19:05:45.667Z,86.29
2022-10-23T19:08:12.813Z,86.76
2022-10-23T19:10:42.177Z,87.13
2022-10-23T19:13:08.516Z,87.72
2022-10-23T19:15:36.783Z,87.69
2022-10-23T19:18:06.371Z,88.20
2022-10-23T19:20:33.154Z,88.76
2022-10-23T19:23:01.889Z,88.80
2022-10-23T19:25:32.345Z,89.00
2022-10-23T19:28:00.347Z,89.17
2022-10-23T19:30:27.328Z,89.05
2022-10-23T19:32:53.737Z,89.43
2022-10-23T19:35:21.343Z,89.55
2022-10-23T19:37:48.136Z,89.29
2022-10-23T19:40:15.553Z,89.82
2022-10-23T19:42:43.169Z,89.80
2022-10-23T19:45:12.482Z,89.74
2022-10-23T19:47:38.949Z,89.79
2022-10-23T19:50:07.171Z,90.04
2022-10-23T19:52:34.569Z,89.84
2022-10-23T19:55:01.286Z,89.89
2022-10-23T19:57:30.292Z,89.97
2022-10-23T19:59:56.626Z,89.85
2022-10-23T20:02:23.092Z,90.16
2022-10-23T20:04:49.597Z,90.28
2022-10-23T20:07:16.189Z,90.43
2022-10-23T20:09:49.923Z,90.20
2022-10-23T20:12:16.393Z,90.34
2022-10-23T20:14:42.835Z,90.26
2022-10-23T20:17:09.181Z,90.15
2022-10-23T20:19:35.545Z,90.10
2022-10-23T20:22:01.998Z,90.17
2022-10-23T20:24:28.331Z,90.17
2022-10-23T20:26:55.914Z,90.14
2022-10-23T20:29:23.106Z,90.06
2022-10-23T20:31:49.460Z,89.90
2022-10-23T20:34:16.040Z,90.08
2022-10-23T20:36:47.313Z,90.15
2022-10-23T20:39:20.769Z,90.22
2022-10-23T20:41:47.723Z,89.98
2022-10-23T20:46:49.342Z,89.87
2022-10-23T20:49:16.391Z,89.46
2022-10-23T20:51:42.990Z,89.64
2022-10-23T20:54:09.378Z,89.61
2022-10-23T20:56:38.931Z,89.77
2022-10-23T20:59:12.676Z,89.50
2022-10-23T21:01:41.570Z,89.26
2022-10-23T21:04:08.391Z,89.26
2022-10-23T21:06:46.105Z,89.11
2022-10-23T21:09:21.480Z,88.97
2022-10-23T21:11:47.881Z,88.97
2022-10-23T21:14:14.239Z,88.68
2022-10-23T21:16:44.240Z,88.43
2022-10-23T21:19:13.961Z,88.55
2022-10-23T21:21:40.274Z,88.44
2022-10-23T21:24:10.612Z,88.08
2022-10-23T21:26:37.492Z,87.91
2022-10-23T21:29:17.955Z,87.36
2022-10-23T21:31:45.120Z,86.84
2022-10-23T21:37:10.750Z,86.40
2022-10-23T21:39:32.475Z,85.86
2022-10-23T21:42:01.423Z,85.89
2022-10-23T21:44:27.742Z,86.08
2022-10-23T21:46:54.104Z,85.71
2022-10-23T21:49:20.717Z,84.97
2022-10-23T21:51:47.364Z,84.85
2022-10-23T21:54:17.038Z,84.49
2022-10-23T21:56:46.258Z,84.27
2022-10-23T21:59:14.779Z,84.52
2022-10-23T22:01:43.832Z,84.01
2022-10-23T22:04:11.871Z,84.05
2022-10-23T22:06:38.765Z,83.89
2022-10-23T22:09:08.475Z,83.82
2022-10-23T22:11:35.070Z,83.81
2022-10-23T22:14:04.578Z,84.03
2022-10-23T22:16:31.262Z,84.07
2022-10-23T22:18:57.766Z,84.27
2022-10-23T22:21:27.282Z,84.45
2022-10-23T22:23:56.219Z,84.70
2022-10-23T22:26:31.672Z,84.75
2022-10-23T22:29:00.552Z,85.04
2022-10-23T22:31:29.428Z,85.23
2022-10-23T22:33:57.003Z,85.23
2022-10-23T22:36:24.060Z,85.35
2022-10-23T22:38:50.524Z,85.04
2022-10-23T22:41:20.464Z,85.20
2022-10-23T22:43:46.842Z,85.29
2022-10-23T22:46:15.729Z,85.43
2022-10-23T22:48:45.661Z,85.44
2022-10-23T22:51:16.878Z,85.47
2022-10-23T22:53:43.918Z,85.88
2022-10-23T22:56:13.940Z,85.79
2022-10-23T22:58:40.473Z,85.81
2022-10-23T23:01:06.807Z,85.77
2022-10-23T23:03:35.636Z,86.01
2022-10-23T23:06:04.021Z,86.01
2022-10-23T23:08:30.426Z,86.02
2022-10-23T23:10:57.721Z,85.66
2022-10-23T23:13:24.924Z,85.66
2022-10-23T23:15:51.837Z,85.58
2022-10-23T23:18:18.250Z,85.58
2022-10-23T23:20:44.670Z,85.74
2022-10-23T23:23:12.388Z,85.85
2022-10-23T23:25:43.671Z,85.89
2022-10-23T23:28:19.462Z,86.03
2022-10-23T23:33:23.564Z,86.46
2022-10-23T23:35:49.889Z,86.78
2022-10-23T23:38:16.219Z,86.95
2022-10-23T23:40:50.705Z,87.06
2022-10-23T23:43:19.435Z,87.15
2022-10-23T23:45:46.041Z,87.51
2022-10-23T23:48:12.394Z,87.84
2022-10-23T23:50:39.656Z,87.86
2022-10-23T23:53:06.047Z,87.93
2022-10-23T23:55:32.430Z,87.95
2022-10-23T23:58:01.749Z,88.17
